sensor_id;sensor_type;location;lat;lon;timestamp;pressure;altitude;pressure_sealevel;temperature;humidity
35619;BME280;21743;55.786;37.168;2022-07-29T00:00:07;99731.09;;;17.55;73.17
35619;BME280;21743;55.786;37.168;2022-07-29T00:02:33;99730.47;;;17.53;73.27
35619;BME280;21743;55.786;37.168;2022-07-29T00:04:59;99731.00;;;17.49;73.46
35619;BME280;21743;55.786;37.168;2022-07-29T00:07:26;99726.50;;;17.43;73.25
35619;BME280;21743;55.786;37.168;2022-07-29T00:09:51;99729.53;;;17.40;73.50
35619;BME280;21743;55.786;37.168;2022-07-29T00:12:19;99734.19;;;17.44;73.49
35619;BME280;21743;55.786;37.168;2022-07-29T00:14:44;99732.00;;;17.48;73.18
35619;BME280;21743;55.786;37.168;2022-07-29T00:17:10;99726.06;;;17.39;73.28
35619;BME280;21743;55.786;37.168;2022-07-29T00:19:36;99734.97;;;17.38;73.56
35619;BME280;21743;55.786;37.168;2022-07-29T00:22:02;99734.78;;;17.40;72.95
35619;BME280;21743;55.786;37.168;2022-07-29T00:24:27;99737.25;;;17.27;73.63
35619;BME280;21743;55.786;37.168;2022-07-29T00:26:53;99735.66;;;17.26;73.37
35619;BME280;21743;55.786;37.168;2022-07-29T00:29:19;99743.28;;;17.20;73.55
35619;BME280;21743;55.786;37.168;2022-07-29T00:31:45;99745.41;;;17.10;73.75
35619;BME280;21743;55.786;37.168;2022-07-29T00:34:11;99746.00;;;17.12;73.61
35619;BME280;21743;55.786;37.168;2022-07-29T00:36:55;99748.22;;;17.09;74.13
35619;BME280;21743;55.786;37.168;2022-07-29T00:39:21;99743.69;;;17.03;73.75
35619;BME280;21743;55.786;37.168;2022-07-29T00:41:47;99751.41;;;17.04;73.99
35619;BME280;21743;55.786;37.168;2022-07-29T00:44:14;99752.75;;;17.00;73.73
35619;BME280;21743;55.786;37.168;2022-07-29T00:46:40;99752.75;;;17.00;73.76
35619;BME280;21743;55.786;37.168;2022-07-29T00:49:06;99746.63;;;16.93;73.86
35619;BME280;21743;55.786;37.168;2022-07-29T00:51:35;99759.41;;;16.81;73.84
35619;BME280;21743;55.786;37.168;2022-07-29T00:54:02;99757.16;;;16.78;74.18
35619;BME280;21743;55.786;37.168;2022-07-29T00:56:32;99752.28;;;16.75;74.32
35619;BME280;21743;55.786;37.168;2022-07-29T00:58:59;99757.69;;;16.74;74.32
35619;BME280;21743;55.786;37.168;2022-07-29T01:01:26;99757.06;;;16.72;74.25
35619;BME280;21743;55.786;37.168;2022-07-29T01:03:51;99764.78;;;16.73;74.30
35619;BME280;21743;55.786;37.168;2022-07-29T01:06:18;99755.91;;;16.74;74.33
35619;BME280;21743;55.786;37.168;2022-07-29T01:08:45;99755.06;;;16.74;74.10
35619;BME280;21743;55.786;37.168;2022-07-29T01:11:12;99754.44;;;16.72;74.12
35619;BME280;21743;55.786;37.168;2022-07-29T01:13:38;99754.44;;;16.72;73.92
35619;BME280;21743;55.786;37.168;2022-07-29T01:16:13;99758.25;;;16.69;74.17
35619;BME280;21743;55.786;37.168;2022-07-29T01:18:47;99764.84;;;16.65;74.03
35619;BME280;21743;55.786;37.168;2022-07-29T01:27:19;99759.06;;;16.70;74.28
35619;BME280;21743;55.786;37.168;2022-07-29T01:29:44;99763.56;;;16.61;74.19
35619;BME280;21743;55.786;37.168;2022-07-29T01:32:12;99762.47;;;16.56;74.21
35619;BME280;21743;55.786;37.168;2022-07-29T01:38:06;99767.03;;;16.47;74.16
35619;BME280;21743;55.786;37.168;2022-07-29T01:40:19;99767.28;;;16.37;74.27
35619;BME280;21743;55.786;37.168;2022-07-29T01:42:50;99769.00;;;16.30;74.56
35619;BME280;21743;55.786;37.168;2022-07-29T01:45:20;99767.72;;;16.26;74.29
35619;BME280;21743;55.786;37.168;2022-07-29T01:53:32;99782.34;;;16.06;74.70
35619;BME280;21743;55.786;37.168;2022-07-29T01:56:01;99778.81;;;15.99;74.89
35619;BME280;21743;55.786;37.168;2022-07-29T01:58:29;99771.19;;;15.89;75.04
35619;BME280;21743;55.786;37.168;2022-07-29T02:00:58;99779.25;;;15.88;75.42
35619;BME280;21743;55.786;37.168;2022-07-29T02:03:25;99778.88;;;15.91;75.31
35619;BME280;21743;55.786;37.168;2022-07-29T02:05:53;99772.94;;;15.97;74.76
35619;BME280;21743;55.786;37.168;2022-07-29T02:08:19;99773.63;;;15.91;75.10
35619;BME280;21743;55.786;37.168;2022-07-29T02:10:47;99782.16;;;15.93;74.94
35619;BME280;21743;55.786;37.168;2022-07-29T02:13:15;99779.25;;;15.88;74.98
35619;BME280;21743;55.786;37.168;2022-07-29T02:15:42;99776.63;;;15.88;75.28
35619;BME280;21743;55.786;37.168;2022-07-29T02:18:15;99775.63;;;15.89;74.96
35619;BME280;21743;55.786;37.168;2022-07-29T02:20:49;99771.56;;;15.86;75.13
35619;BME280;21743;55.786;37.168;2022-07-29T02:23:19;99775.44;;;15.90;75.21
35619;BME280;21743;55.786;37.168;2022-07-29T02:25:48;99773.09;;;15.95;75.26
35619;BME280;21743;55.786;37.168;2022-07-29T02:28:16;99772.75;;;15.98;75.37
35619;BME280;21743;55.786;37.168;2022-07-29T02:30:43;99772.22;;;16.03;75.04
35619;BME280;21743;55.786;37.168;2022-07-29T02:33:12;99778.72;;;16.07;75.05
35619;BME280;21743;55.786;37.168;2022-07-29T02:35:40;99771.31;;;16.10;75.07
35619;BME280;21743;55.786;37.168;2022-07-29T02:38:09;99777.69;;;16.16;74.82
35619;BME280;21743;55.786;37.168;2022-07-29T02:40:56;99769.97;;;16.14;74.77
35619;BME280;21743;55.786;37.168;2022-07-29T02:43:24;99777.22;;;16.12;74.84
35619;BME280;21743;55.786;37.168;2022-07-29T02:45:52;99775.75;;;16.10;75.26
35619;BME280;21743;55.786;37.168;2022-07-29T02:48:27;99779.66;;;16.14;75.29
35619;BME280;21743;55.786;37.168;2022-07-29T02:51:01;99777.50;;;16.17;75.11
35619;BME280;21743;55.786;37.168;2022-07-29T02:53:33;99779.41;;;16.24;75.17
35619;BME280;21743;55.786;37.168;2022-07-29T02:56:01;99779.16;;;16.33;75.15
35619;BME280;21743;55.786;37.168;2022-07-29T02:58:41;99780.69;;;16.42;74.69
35619;BME280;21743;55.786;37.168;2022-07-29T03:01:12;99778.59;;;16.38;74.61
35619;BME280;21743;55.786;37.168;2022-07-29T03:03:39;99773.00;;;16.41;74.80
35619;BME280;21743;55.786;37.168;2022-07-29T03:06:08;99762.94;;;16.44;74.67
35619;BME280;21743;55.786;37.168;2022-07-29T03:08:34;99770.06;;;16.50;74.21
35619;BME280;21743;55.786;37.168;2022-07-29T03:11:01;99776.06;;;16.44;74.55
35619;BME280;21743;55.786;37.168;2022-07-29T03:13:29;99779.06;;;16.41;74.42
35619;BME280;21743;55.786;37.168;2022-07-29T03:15:56;99780.41;;;16.37;74.52
35619;BME280;21743;55.786;37.168;2022-07-29T03:18:23;99784.03;;;16.36;74.52
35619;BME280;21743;55.786;37.168;2022-07-29T03:20:50;99771.34;;;16.40;74.58
35619;BME280;21743;55.786;37.168;2022-07-29T03:23:22;99780.69;;;16.42;74.34
35619;BME280;21743;55.786;37.168;2022-07-29T03:25:49;99779.78;;;16.50;74.40
35619;BME280;21743;55.786;37.168;2022-07-29T03:28:15;99786.31;;;16.54;74.04
35619;BME280;21743;55.786;37.168;2022-07-29T03:30:41;99785.13;;;16.57;74.01
35619;BME280;21743;55.786;37.168;2022-07-29T03:33:07;99776.91;;;16.60;74.03
35619;BME280;21743;55.786;37.168;2022-07-29T03:35:33;99780.16;;;16.62;73.99
35619;BME280;21743;55.786;37.168;2022-07-29T03:37:59;99770.47;;;16.62;73.68
35619;BME280;21743;55.786;37.168;2022-07-29T03:40:37;99780.91;;;16.70;73.69
35619;BME280;21743;55.786;37.168;2022-07-29T03:43:05;99776.09;;;16.74;73.72
35619;BME280;21743;55.786;37.168;2022-07-29T03:45:33;99777.56;;;16.76;73.74
35619;BME280;21743;55.786;37.168;2022-07-29T03:48:12;99780.81;;;16.78;73.16
35619;BME280;21743;55.786;37.168;2022-07-29T03:50:39;99788.53;;;16.80;73.77
35619;BME280;21743;55.786;37.168;2022-07-29T03:53:05;99794.19;;;16.83;73.51
35619;BME280;21743;55.786;37.168;2022-07-29T03:55:39;99793.78;;;16.80;73.63
35619;BME280;21743;55.786;37.168;2022-07-29T03:58:06;99791.94;;;16.80;73.71
35619;BME280;21743;55.786;37.168;2022-07-29T04:00:34;99792.03;;;16.87;73.59
35619;BME280;21743;55.786;37.168;2022-07-29T04:03:03;99790.69;;;16.91;73.51
35619;BME280;21743;55.786;37.168;2022-07-29T04:05:30;99783.03;;;16.96;73.15
35619;BME280;21743;55.786;37.168;2022-07-29T04:07:55;99783.13;;;17.03;73.09
35619;BME280;21743;55.786;37.168;2022-07-29T04:10:21;99788.91;;;17.13;72.98
35619;BME280;21743;55.786;37.168;2022-07-29T04:12:49;99783.72;;;17.19;73.06
35619;BME280;21743;55.786;37.168;2022-07-29T04:15:15;99793.13;;;17.29;72.87
35619;BME280;21743;55.786;37.168;2022-07-29T04:17:40;99780.25;;;17.34;72.56
35619;BME280;21743;55.786;37.168;2022-07-29T04:20:07;99786.00;;;17.44;72.30
35619;BME280;21743;55.786;37.168;2022-07-29T04:22:33;99794.25;;;17.55;71.77
35619;BME280;21743;55.786;37.168;2022-07-29T04:24:59;99786.88;;;17.66;71.88
35619;BME280;21743;55.786;37.168;2022-07-29T04:27:25;99784.72;;;17.76;71.52
35619;BME280;21743;55.786;37.168;2022-07-29T04:29:51;99786.78;;;17.80;71.14
35619;BME280;21743;55.786;37.168;2022-07-29T04:32:16;99795.00;;;17.92;71.23
35619;BME280;21743;55.786;37.168;2022-07-29T04:34:42;99787.38;;;18.04;70.82
35619;BME280;21743;55.786;37.168;2022-07-29T04:37:08;99794.53;;;18.10;71.08
35619;BME280;21743;55.786;37.168;2022-07-29T04:39:34;99796.22;;;18.17;70.32
35619;BME280;21743;55.786;37.168;2022-07-29T04:41:59;99796.44;;;18.22;70.61
35619;BME280;21743;55.786;37.168;2022-07-29T04:44:25;99798.53;;;18.34;70.23
35619;BME280;21743;55.786;37.168;2022-07-29T04:46:52;99808.75;;;18.43;70.17
35619;BME280;21743;55.786;37.168;2022-07-29T04:49:17;99799.25;;;18.49;69.83
35619;BME280;21743;55.786;37.168;2022-07-29T04:51:43;99804.94;;;18.52;68.80
35619;BME280;21743;55.786;37.168;2022-07-29T04:54:09;99799.09;;;18.57;69.25
35619;BME280;21743;55.786;37.168;2022-07-29T04:56:34;99794.50;;;18.66;69.11
35619;BME280;21743;55.786;37.168;2022-07-29T04:59:00;99795.75;;;18.70;68.96
35619;BME280;21743;55.786;37.168;2022-07-29T05:01:26;99792.75;;;18.73;68.49
35619;BME280;21743;55.786;37.168;2022-07-29T05:03:52;99785.19;;;18.63;68.60
35619;BME280;21743;55.786;37.168;2022-07-29T05:06:18;99786.66;;;18.72;68.29
35619;BME280;21743;55.786;37.168;2022-07-29T05:08:43;99793.38;;;18.75;68.62
35619;BME280;21743;55.786;37.168;2022-07-29T05:11:09;99788.72;;;18.77;68.12
35619;BME280;21743;55.786;37.168;2022-07-29T05:13:35;99792.56;;;18.81;68.39
35619;BME280;21743;55.786;37.168;2022-07-29T05:16:01;99783.84;;;18.80;68.16
35619;BME280;21743;55.786;37.168;2022-07-29T05:18:27;99782.44;;;18.84;67.69
35619;BME280;21743;55.786;37.168;2022-07-29T05:20:53;99782.69;;;18.89;67.91
35619;BME280;21743;55.786;37.168;2022-07-29T05:23:19;99788.00;;;19.03;67.94
35619;BME280;21743;55.786;37.168;2022-07-29T05:25:45;99784.97;;;19.12;67.68
35619;BME280;21743;55.786;37.168;2022-07-29T05:28:12;99790.50;;;19.17;67.59
35619;BME280;21743;55.786;37.168;2022-07-29T05:30:38;99791.31;;;19.18;67.56
35619;BME280;21743;55.786;37.168;2022-07-29T05:33:03;99791.50;;;19.16;67.49
35619;BME280;21743;55.786;37.168;2022-07-29T05:35:29;99799.03;;;19.19;66.37
35619;BME280;21743;55.786;37.168;2022-07-29T05:37:55;99787.66;;;19.19;66.09
35619;BME280;21743;55.786;37.168;2022-07-29T05:40:20;99788.91;;;19.23;66.04
35619;BME280;21743;55.786;37.168;2022-07-29T05:42:46;99787.47;;;19.27;66.26
35619;BME280;21743;55.786;37.168;2022-07-29T05:45:12;99780.78;;;19.31;66.22
35619;BME280;21743;55.786;37.168;2022-07-29T05:47:38;99785.06;;;19.39;66.42
35619;BME280;21743;55.786;37.168;2022-07-29T05:50:04;99785.06;;;19.45;66.78
35619;BME280;21743;55.786;37.168;2022-07-29T05:52:30;99785.69;;;19.47;65.46
35619;BME280;21743;55.786;37.168;2022-07-29T05:54:56;99770.66;;;19.48;64.68
35619;BME280;21743;55.786;37.168;2022-07-29T05:57:23;99785.69;;;19.47;64.94
35619;BME280;21743;55.786;37.168;2022-07-29T05:59:50;99775.78;;;19.49;65.13
35619;BME280;21743;55.786;37.168;2022-07-29T06:02:16;99771.13;;;19.58;64.95
35619;BME280;21743;55.786;37.168;2022-07-29T06:04:42;99777.66;;;19.69;64.41
35619;BME280;21743;55.786;37.168;2022-07-29T06:07:08;99769.13;;;19.80;64.18
35619;BME280;21743;55.786;37.168;2022-07-29T06:09:35;99773.38;;;19.87;63.87
35619;BME280;21743;55.786;37.168;2022-07-29T06:12:01;99767.50;;;19.98;63.63
35619;BME280;21743;55.786;37.168;2022-07-29T06:14:27;99777.84;;;20.13;62.25
35619;BME280;21743;55.786;37.168;2022-07-29T06:16:54;99777.63;;;20.28;61.87
35619;BME280;21743;55.786;37.168;2022-07-29T06:19:20;99782.72;;;20.43;61.34
35619;BME280;21743;55.786;37.168;2022-07-29T06:21:46;99776.56;;;20.49;60.78
35619;BME280;21743;55.786;37.168;2022-07-29T06:24:14;99773.72;;;20.57;59.92
35619;BME280;21743;55.786;37.168;2022-07-29T06:26:40;99773.69;;;20.63;60.18
35619;BME280;21743;55.786;37.168;2022-07-29T06:29:07;99770.41;;;20.75;59.93
35619;BME280;21743;55.786;37.168;2022-07-29T06:31:34;99778.31;;;20.88;59.56
35619;BME280;21743;55.786;37.168;2022-07-29T06:34:00;99770.78;;;20.91;58.35
35619;BME280;21743;55.786;37.168;2022-07-29T06:36:25;99769.69;;;20.99;58.21
35619;BME280;21743;55.786;37.168;2022-07-29T06:38:51;99773.75;;;21.08;58.19
35619;BME280;21743;55.786;37.168;2022-07-29T06:41:17;99771.50;;;21.05;56.90
35619;BME280;21743;55.786;37.168;2022-07-29T06:43:44;99772.47;;;21.17;56.59
35619;BME280;21743;55.786;37.168;2022-07-29T06:46:14;99770.78;;;21.36;56.13
35619;BME280;21743;55.786;37.168;2022-07-29T06:48:41;99769.44;;;21.52;55.24
35619;BME280;21743;55.786;37.168;2022-07-29T06:51:08;99768.34;;;21.66;54.63
35619;BME280;21743;55.786;37.168;2022-07-29T06:53:35;99764.97;;;21.77;54.09
35619;BME280;21743;55.786;37.168;2022-07-29T06:56:03;99757.94;;;21.89;54.49
35619;BME280;21743;55.786;37.168;2022-07-29T06:58:29;99763.38;;;22.01;54.88
35619;BME280;21743;55.786;37.168;2022-07-29T07:00:57;99760.97;;;22.18;54.24
35619;BME280;21743;55.786;37.168;2022-07-29T07:03:23;99761.72;;;22.25;54.20
35619;BME280;21743;55.786;37.168;2022-07-29T07:05:51;99767.34;;;22.35;54.06
35619;BME280;21743;55.786;37.168;2022-07-29T07:08:18;99752.56;;;22.45;54.03
35619;BME280;21743;55.786;37.168;2022-07-29T07:10:45;99764.69;;;22.53;52.81
35619;BME280;21743;55.786;37.168;2022-07-29T07:13:11;99748.94;;;22.58;52.64
35619;BME280;21743;55.786;37.168;2022-07-29T07:15:37;99758.38;;;22.72;52.86
35619;BME280;21743;55.786;37.168;2022-07-29T07:18:04;99756.91;;;22.76;51.81
35619;BME280;21743;55.786;37.168;2022-07-29T07:20:30;99762.28;;;22.88;51.61
35619;BME280;21743;55.786;37.168;2022-07-29T07:22:56;99762.88;;;22.90;51.24
35619;BME280;21743;55.786;37.168;2022-07-29T07:25:21;99758.50;;;22.96;51.08
35619;BME280;21743;55.786;37.168;2022-07-29T07:27:47;99758.22;;;23.04;50.51
35619;BME280;21743;55.786;37.168;2022-07-29T07:30:13;99763.00;;;22.95;51.02
35619;BME280;21743;55.786;37.168;2022-07-29T07:32:39;99767.06;;;22.98;51.33
35619;BME280;21743;55.786;37.168;2022-07-29T07:35:06;99758.69;;;23.12;51.31
35619;BME280;21743;55.786;37.168;2022-07-29T07:37:33;99763.16;;;23.30;50.77
35619;BME280;21743;55.786;37.168;2022-07-29T07:39:59;99763.72;;;23.21;50.12
35619;BME280;21743;55.786;37.168;2022-07-29T07:42:25;99754.94;;;23.20;50.00
35619;BME280;21743;55.786;37.168;2022-07-29T07:44:50;99764.19;;;23.29;49.28
35619;BME280;21743;55.786;37.168;2022-07-29T07:47:16;99760.94;;;23.27;49.56
35619;BME280;21743;55.786;37.168;2022-07-29T07:49:49;99764.78;;;23.31;49.84
35619;BME280;21743;55.786;37.168;2022-07-29T07:52:16;99771.06;;;23.48;49.36
35619;BME280;21743;55.786;37.168;2022-07-29T07:54:42;99764.75;;;23.61;49.52
35619;BME280;21743;55.786;37.168;2022-07-29T07:57:09;99770.78;;;23.68;48.84
35619;BME280;21743;55.786;37.168;2022-07-29T07:59:35;99778.72;;;23.57;49.73
35619;BME280;21743;55.786;37.168;2022-07-29T08:02:01;99770.78;;;23.38;49.06
35619;BME280;21743;55.786;37.168;2022-07-29T08:04:26;99767.06;;;23.28;49.33
35619;BME280;21743;55.786;37.168;2022-07-29T08:06:53;99773.53;;;23.02;50.54
35619;BME280;21743;55.786;37.168;2022-07-29T08:09:20;99779.91;;;22.83;50.75
35619;BME280;21743;55.786;37.168;2022-07-29T08:11:46;99775.38;;;22.65;51.46
35619;BME280;21743;55.786;37.168;2022-07-29T08:14:12;99787.75;;;22.53;52.75
35619;BME280;21743;55.786;37.168;2022-07-29T08:16:39;99778.47;;;22.43;52.80
35619;BME280;21743;55.786;37.168;2022-07-29T08:19:06;99779.56;;;22.36;52.72
35619;BME280;21743;55.786;37.168;2022-07-29T08:21:32;99792.47;;;22.51;52.25
35619;BME280;21743;55.786;37.168;2022-07-29T08:23:57;99785.03;;;22.96;51.46
35619;BME280;21743;55.786;37.168;2022-07-29T08:26:44;99785.66;;;23.58;48.97
35619;BME280;21743;55.786;37.168;2022-07-29T08:29:10;99771.72;;;23.85;48.69
35619;BME280;21743;55.786;37.168;2022-07-29T08:31:37;99774.63;;;24.19;46.60
35619;BME280;21743;55.786;37.168;2022-07-29T08:34:04;99777.91;;;24.33;46.75
35619;BME280;21743;55.786;37.168;2022-07-29T08:36:31;99780.97;;;24.65;47.43
35619;BME280;21743;55.786;37.168;2022-07-29T08:38:57;99762.44;;;24.81;45.43
35619;BME280;21743;55.786;37.168;2022-07-29T08:41:23;99767.13;;;24.91;45.39
35619;BME280;21743;55.786;37.168;2022-07-29T08:43:50;99785.59;;;24.69;45.39
35619;BME280;21743;55.786;37.168;2022-07-29T08:46:17;99773.97;;;24.35;46.70
35619;BME280;21743;55.786;37.168;2022-07-29T08:48:43;99765.63;;;24.32;46.70
35619;BME280;21743;55.786;37.168;2022-07-29T08:51:13;99767.97;;;24.40;44.24
35619;BME280;21743;55.786;37.168;2022-07-29T08:53:41;99773.81;;;24.65;44.10
35619;BME280;21743;55.786;37.168;2022-07-29T08:56:11;99772.16;;;24.87;44.40
35619;BME280;21743;55.786;37.168;2022-07-29T08:58:39;99773.59;;;25.07;43.27
35619;BME280;21743;55.786;37.168;2022-07-29T09:01:06;99768.72;;;25.15;43.24
35619;BME280;21743;55.786;37.168;2022-07-29T09:03:34;99772.41;;;25.14;43.54
35619;BME280;21743;55.786;37.168;2022-07-29T09:06:02;99778.09;;;25.06;43.32
35619;BME280;21743;55.786;37.168;2022-07-29T09:08:29;99776.34;;;25.12;44.02
35619;BME280;21743;55.786;37.168;2022-07-29T09:10:56;99775.56;;;25.11;43.33
35619;BME280;21743;55.786;37.168;2022-07-29T09:13:22;99771.03;;;25.12;43.57
35619;BME280;21743;55.786;37.168;2022-07-29T09:15:48;99772.66;;;25.13;42.83
35619;BME280;21743;55.786;37.168;2022-07-29T09:20:58;99771.75;;;25.07;41.92
35619;BME280;21743;55.786;37.168;2022-07-29T09:24:00;99771.19;;;25.05;41.06
35619;BME280;21743;55.786;37.168;2022-07-29T09:26:30;99769.47;;;24.99;41.28
35619;BME280;21743;55.786;37.168;2022-07-29T09:28:57;99764.25;;;24.93;40.58
35619;BME280;21743;55.786;37.168;2022-07-29T09:31:33;99762.19;;;24.95;41.54
35619;BME280;21743;55.786;37.168;2022-07-29T09:34:00;99769.81;;;25.03;41.77
35619;BME280;21743;55.786;37.168;2022-07-29T09:36:26;99770.41;;;24.81;41.88
35619;BME280;21743;55.786;37.168;2022-07-29T09:39:01;99773.22;;;24.75;42.79
35619;BME280;21743;55.786;37.168;2022-07-29T09:41:29;99777.84;;;24.68;42.62
35619;BME280;21743;55.786;37.168;2022-07-29T09:43:56;99782.63;;;24.54;43.44
35619;BME280;21743;55.786;37.168;2022-07-29T09:46:23;99777.19;;;24.49;43.13
35619;BME280;21743;55.786;37.168;2022-07-29T09:51:36;99779.13;;;24.65;43.07
35619;BME280;21743;55.786;37.168;2022-07-29T09:54:21;99780.97;;;24.65;42.48
35619;BME280;21743;55.786;37.168;2022-07-29T09:56:48;99777.66;;;24.58;41.99
35619;BME280;21743;55.786;37.168;2022-07-29T09:59:14;99778.69;;;24.45;42.41
35619;BME280;21743;55.786;37.168;2022-07-29T10:01:40;99776.38;;;24.48;43.48
35619;BME280;21743;55.786;37.168;2022-07-29T10:04:06;99774.41;;;24.56;42.76
35619;BME280;21743;55.786;37.168;2022-07-29T10:06:32;99787.38;;;24.52;43.41
35619;BME280;21743;55.786;37.168;2022-07-29T10:09:08;99795.47;;;24.45;43.14
35619;BME280;21743;55.786;37.168;2022-07-29T10:11:34;99778.59;;;24.40;42.57
35619;BME280;21743;55.786;37.168;2022-07-29T10:14:02;99783.34;;;24.38;43.29
35619;BME280;21743;55.786;37.168;2022-07-29T10:16:29;99785.53;;;24.41;43.22
35619;BME280;21743;55.786;37.168;2022-07-29T10:18:58;99786.13;;;24.43;43.20
35619;BME280;21743;55.786;37.168;2022-07-29T10:21:27;99788.66;;;24.38;43.81
35619;BME280;21743;55.786;37.168;2022-07-29T10:23:53;99785.97;;;24.14;43.26
35619;BME280;21743;55.786;37.168;2022-07-29T10:26:19;99789.06;;;23.88;43.43
35619;BME280;21743;55.786;37.168;2022-07-29T10:28:46;99793.53;;;23.64;44.73
35619;BME280;21743;55.786;37.168;2022-07-29T10:31:22;99779.66;;;23.62;44.23
35619;BME280;21743;55.786;37.168;2022-07-29T10:34:06;99784.78;;;23.75;44.19
35619;BME280;21743;55.786;37.168;2022-07-29T10:42:10;99773.47;;;23.80;44.56
35619;BME280;21743;55.786;37.168;2022-07-29T10:44:40;99772.44;;;23.81;45.87
35619;BME280;21743;55.786;37.168;2022-07-29T10:47:06;99763.88;;;23.91;44.96
35619;BME280;21743;55.786;37.168;2022-07-29T10:49:32;99764.00;;;24.07;44.21
35619;BME280;21743;55.786;37.168;2022-07-29T10:52:06;99770.72;;;24.22;45.44
35619;BME280;21743;55.786;37.168;2022-07-29T10:57:21;99770.72;;;24.45;44.88
35619;BME280;21743;55.786;37.168;2022-07-29T10:59:50;99765.66;;;24.43;44.37
35619;BME280;21743;55.786;37.168;2022-07-29T11:05:04;99780.09;;;24.12;44.96
35619;BME280;21743;55.786;37.168;2022-07-29T11:07:32;99787.72;;;23.97;45.32
35619;BME280;21743;55.786;37.168;2022-07-29T11:15:10;99784.19;;;23.73;45.65
35619;BME280;21743;55.786;37.168;2022-07-29T11:20:34;99776.13;;;23.92;45.68
35619;BME280;21743;55.786;37.168;2022-07-29T11:23:00;99774.75;;;23.89;45.92
35619;BME280;21743;55.786;37.168;2022-07-29T11:25:27;99772.22;;;23.94;45.55
35619;BME280;21743;55.786;37.168;2022-07-29T11:27:54;99767.81;;;24.00;45.42
35619;BME280;21743;55.786;37.168;2022-07-29T11:30:52;99768.28;;;24.08;44.88
35619;BME280;21743;55.786;37.168;2022-07-29T11:33:32;99766.91;;;24.06;43.67
35619;BME280;21743;55.786;37.168;2022-07-29T11:36:24;99767.72;;;24.06;43.86
35619;BME280;21743;55.786;37.168;2022-07-29T11:38:49;99777.97;;;24.03;43.04
35619;BME280;21743;55.786;37.168;2022-07-29T11:41:23;99773.03;;;24.06;43.86
35619;BME280;21743;55.786;37.168;2022-07-29T11:43:53;99774.28;;;24.15;43.08
35619;BME280;21743;55.786;37.168;2022-07-29T11:46:49;99770.34;;;24.18;44.07
35619;BME280;21743;55.786;37.168;2022-07-29T11:49:23;99773.16;;;24.23;43.97
35619;BME280;21743;55.786;37.168;2022-07-29T11:51:54;99771.09;;;24.25;42.97
35619;BME280;21743;55.786;37.168;2022-07-29T11:54:31;99775.47;;;24.31;42.79
35619;BME280;21743;55.786;37.168;2022-07-29T11:56:58;99766.00;;;24.24;43.22
35619;BME280;21743;55.786;37.168;2022-07-29T11:59:25;99777.06;;;24.09;42.03
35619;BME280;21743;55.786;37.168;2022-07-29T12:02:00;99767.81;;;24.00;42.54
35619;BME280;21743;55.786;37.168;2022-07-29T12:04:26;99767.47;;;23.96;42.60
35619;BME280;21743;55.786;37.168;2022-07-29T12:06:53;99763.66;;;23.92;43.18
35619;BME280;21743;55.786;37.168;2022-07-29T12:09:20;99765.03;;;23.83;43.00
35619;BME280;21743;55.786;37.168;2022-07-29T12:11:47;99769.28;;;23.72;43.42
35619;BME280;21743;55.786;37.168;2022-07-29T12:14:29;99764.31;;;23.76;42.65
35619;BME280;21743;55.786;37.168;2022-07-29T12:16:56;99757.53;;;23.80;43.07
35619;BME280;21743;55.786;37.168;2022-07-29T12:19:22;99756.59;;;23.86;43.20
35619;BME280;21743;55.786;37.168;2022-07-29T12:21:50;99750.13;;;23.94;43.37
35619;BME280;21743;55.786;37.168;2022-07-29T12:24:17;99759.72;;;24.06;43.23
35619;BME280;21743;55.786;37.168;2022-07-29T12:26:57;99756.16;;;24.12;42.86
35619;BME280;21743;55.786;37.168;2022-07-29T12:29:24;99754.84;;;24.15;42.31
35619;BME280;21743;55.786;37.168;2022-07-29T12:31:53;99754.56;;;24.23;41.88
35619;BME280;21743;55.786;37.168;2022-07-29T12:34:22;99745.97;;;24.21;41.61
35619;BME280;21743;55.786;37.168;2022-07-29T12:36:49;99743.75;;;24.18;41.66
35619;BME280;21743;55.786;37.168;2022-07-29T12:39:18;99751.28;;;24.09;41.89
35619;BME280;21743;55.786;37.168;2022-07-29T12:41:46;99749.69;;;23.97;41.51
35619;BME280;21743;55.786;37.168;2022-07-29T12:44:11;99740.88;;;23.84;42.02
35619;BME280;21743;55.786;37.168;2022-07-29T12:46:37;99748.97;;;23.78;41.99
35619;BME280;21743;55.786;37.168;2022-07-29T12:49:04;99750.81;;;23.66;42.62
35619;BME280;21743;55.786;37.168;2022-07-29T12:51:39;99752.53;;;23.60;42.90
35619;BME280;21743;55.786;37.168;2022-07-29T12:54:11;99755.25;;;23.54;43.47
35619;BME280;21743;55.786;37.168;2022-07-29T12:56:39;99753.41;;;23.54;44.23
35619;BME280;21743;55.786;37.168;2022-07-29T13:01:41;99747.28;;;23.54;44.23
35619;BME280;21743;55.786;37.168;2022-07-29T13:04:07;99751.72;;;23.60;44.17
35619;BME280;21743;55.786;37.168;2022-07-29T13:06:41;99751.03;;;23.64;44.05
35619;BME280;21743;55.786;37.168;2022-07-29T13:09:16;99758.66;;;23.72;44.30
35619;BME280;21743;55.786;37.168;2022-07-29T13:11:47;99750.00;;;23.77;44.03
35619;BME280;21743;55.786;37.168;2022-07-29T13:14:30;99749.56;;;23.80;43.85
35619;BME280;21743;55.786;37.168;2022-07-29T13:17:16;99749.09;;;23.83;43.91
35619;BME280;21743;55.786;37.168;2022-07-29T13:19:44;99752.31;;;23.85;43.76
35619;BME280;21743;55.786;37.168;2022-07-29T13:22:14;99745.50;;;23.89;43.64
35619;BME280;21743;55.786;37.168;2022-07-29T13:25:00;99743.34;;;23.98;43.17
35619;BME280;21743;55.786;37.168;2022-07-29T13:27:31;99748.16;;;24.01;43.11
35619;BME280;21743;55.786;37.168;2022-07-29T13:29:58;99747.84;;;23.97;42.84
35619;BME280;21743;55.786;37.168;2022-07-29T13:32:26;99747.81;;;23.85;43.79
35619;BME280;21743;55.786;37.168;2022-07-29T13:34:53;99761.31;;;23.72;45.03
35619;BME280;21743;55.786;37.168;2022-07-29T13:37:19;99758.41;;;23.62;45.09